Terminal Aerodrome Forecast
Issued by NWS

Home | Current Version | Previous Version | Text Only | Print | Product List | Glossary On
Versions: 1 2 3 4 5 6 7 8 9 10 11 12 13 14 15 16 17 18 19 20 21 22 23 24 25 26 27 28 29 30 31 32 33 34 35 36 37 38 39 40 41 42
000
FTUS45 KBOU 261124
TAFAPA
TAF
KAPA 261124Z 2612/2712 VRB05KT P6SM VCFG SCT008 BKN040
     FM261600 08006KT P6SM SCT040 SCT110 SCT200
     FM261900 VRB05KT P6SM SCT090 BKN150
      TEMPO 2621/2624 VRB20G32KT -TSRA BKN050CB
     FM270000 04007KT P6SM VCTS SCT060CB BKN100
      TEMPO 2700/2704 VRB20G40KT 3SM TSRA BKN050CB
     FM270600 28007KT P6SM SCT080 BKN150=

USA.gov is the U.S. government's official web portal to all federal, state and local government web resources and services.